createdAt,value
2022-09-28T00:02:21.948Z,14.53
2022-09-28T00:04:49.737Z,15.40
2022-09-28T00:07:17.268Z,14.60
2022-09-28T00:09:46.226Z,15.03
2022-09-28T00:12:13.742Z,14.97
2022-09-28T00:14:43.038Z,15.67
2022-09-28T00:17:12.228Z,14.13
2022-09-28T00:19:40.436Z,14.73
2022-09-28T00:22:08.203Z,14.53
2022-09-28T00:24:35.983Z,15.10
2022-09-28T00:27:06.183Z,14.27
2022-09-28T00:29:35.384Z,13.60
2022-09-28T00:32:04.164Z,13.23
2022-09-28T00:34:32.531Z,13.53
2022-09-28T00:37:00.375Z,12.87
2022-09-28T00:39:28.098Z,13.50
2022-09-28T00:41:56.095Z,13.23
2022-09-28T00:44:33.283Z,13.77
2022-09-28T00:47:02.867Z,14.43
2022-09-28T00:49:33.255Z,15.03
2022-09-28T00:52:01.168Z,15.30
2022-09-28T00:54:28.798Z,16.13
2022-09-28T00:56:56.652Z,15.53
2022-09-28T00:59:24.883Z,15.40
2022-09-28T01:01:53.887Z,16.00
2022-09-28T01:04:25.889Z,15.13
2022-09-28T01:06:57.213Z,15.80
2022-09-28T01:09:26.288Z,15.23
2022-09-28T01:11:55.250Z,15.43
2022-09-28T01:14:25.669Z,15.60
2022-09-28T01:16:58.917Z,16.23
2022-09-28T01:19:36.169Z,14.37
2022-09-28T01:22:14.274Z,14.87
2022-09-28T01:24:43.447Z,16.37
2022-09-28T01:27:14.568Z,16.90
2022-09-28T01:29:46.154Z,16.50
2022-09-28T01:32:18.007Z,18.03
2022-09-28T01:34:49.323Z,17.60
2022-09-28T01:37:19.736Z,17.30
2022-09-28T01:39:50.548Z,18.13
2022-09-28T01:42:22.149Z,18.63
2022-09-28T01:44:51.713Z,19.67
2022-09-28T01:47:21.650Z,21.10
2022-09-28T01:49:51.877Z,21.50
2022-09-28T01:52:21.865Z,21.20
2022-09-28T01:54:53.062Z,21.57
2022-09-28T01:57:24.081Z,22.23
2022-09-28T01:59:57.120Z,21.40
2022-09-28T02:02:26.911Z,21.87
2022-09-28T02:04:56.642Z,21.73
2022-09-28T02:07:25.533Z,22.27
2022-09-28T02:09:56.145Z,20.97
2022-09-28T02:12:28.347Z,21.17
2022-09-28T02:14:58.735Z,21.60
2022-09-28T02:17:26.503Z,20.43
2022-09-28T02:19:54.446Z,20.63
2022-09-28T02:22:25.989Z,21.27
2022-09-28T02:24:55.757Z,22.60
2022-09-28T02:27:28.967Z,22.63
2022-09-28T02:29:57.390Z,22.33
2022-09-28T02:32:25.586Z,21.13
2022-09-28T02:34:53.313Z,20.30
2022-09-28T02:37:20.953Z,23.10
2022-09-28T02:39:48.711Z,19.43
2022-09-28T02:42:21.109Z,20.03
2022-09-28T02:44:57.815Z,21.60
2022-09-28T02:47:28.384Z,20.53
2022-09-28T02:49:59.760Z,20.83
2022-09-28T02:52:38.361Z,19.17
2022-09-28T02:55:15.161Z,19.27
2022-09-28T02:57:48.246Z,19.50
2022-09-28T03:00:20.061Z,20.40
2022-09-28T03:02:52.410Z,19.93
2022-09-28T03:05:21.992Z,20.53
2022-09-28T03:07:57.136Z,22.23
2022-09-28T03:10:26.703Z,20.73
2022-09-28T03:12:55.082Z,20.27
2022-09-28T03:15:25.150Z,18.10
2022-09-28T03:17:53.088Z,17.53
2022-09-28T03:20:20.779Z,16.70
2022-09-28T03:23:12.326Z,14.00
2022-09-28T03:25:36.872Z,14.83
2022-09-28T03:28:04.607Z,13.03
2022-09-28T03:30:34.285Z,15.20
2022-09-28T03:33:02.668Z,11.53
2022-09-28T03:35:30.300Z,12.43
2022-09-28T03:37:58.204Z,12.37
2022-09-28T03:40:25.978Z,13.43
2022-09-28T03:42:54.105Z,12.13
2022-09-28T03:45:21.673Z,13.43
2022-09-28T03:47:50.614Z,12.90
2022-09-28T03:50:18.133Z,13.30
2022-09-28T03:52:45.713Z,12.57
2022-09-28T03:55:13.214Z,12.53
2022-09-28T03:57:40.729Z,13.03
2022-09-28T04:00:09.525Z,12.30
2022-09-28T04:02:37.513Z,12.77
2022-09-28T04:05:06.967Z,13.60
2022-09-28T04:07:34.699Z,11.80
2022-09-28T04:10:02.334Z,13.33
2022-09-28T04:12:29.881Z,12.40
2022-09-28T04:14:57.557Z,12.47
2022-09-28T04:17:25.038Z,12.63
2022-09-28T04:19:53.050Z,11.87
2022-09-28T04:22:23.642Z,12.37
2022-09-28T04:24:51.568Z,11.97
2022-09-28T04:27:36.303Z,12.83
2022-09-28T04:30:03.921Z,12.27
2022-09-28T04:32:31.560Z,13.20
2022-09-28T04:34:59.091Z,12.67
2022-09-28T04:37:28.467Z,12.83
2022-09-28T04:39:56.008Z,11.87
2022-09-28T04:42:23.659Z,11.67
2022-09-28T04:44:51.251Z,12.80
2022-09-28T04:47:18.806Z,12.37
2022-09-28T04:49:46.342Z,11.50
2022-09-28T04:52:18.318Z,12.93
2022-09-28T04:54:47.770Z,11.97
2022-09-28T04:57:15.298Z,13.67
2022-09-28T04:59:42.872Z,13.00
2022-09-28T05:02:10.934Z,13.77
2022-09-28T05:04:38.652Z,15.60
2022-09-28T05:07:06.265Z,19.23
2022-09-28T05:09:37.664Z,20.27
2022-09-28T05:12:07.547Z,23.60
2022-09-28T05:14:35.209Z,24.60
2022-09-28T05:17:03.142Z,24.67
2022-09-28T05:19:31.428Z,25.20
2022-09-28T05:22:00.556Z,27.30
2022-09-28T05:24:28.117Z,27.30
2022-09-28T05:26:55.700Z,26.63
2022-09-28T05:29:25.790Z,27.20
2022-09-28T05:31:54.792Z,26.27
2022-09-28T05:34:22.717Z,26.07
2022-09-28T05:36:50.736Z,26.33
2022-09-28T05:39:18.467Z,25.10
2022-09-28T05:41:46.227Z,25.20
2022-09-28T05:44:13.685Z,25.77
2022-09-28T05:46:42.682Z,27.67
2022-09-28T05:49:10.336Z,27.10
2022-09-28T05:51:38.636Z,26.63
2022-09-28T05:54:13.513Z,27.40
2022-09-28T05:56:41.167Z,28.00
2022-09-28T05:59:09.372Z,27.93
2022-09-28T06:01:36.875Z,26.37
2022-09-28T06:04:06.087Z,24.53
2022-09-28T06:06:36.076Z,26.87
2022-09-28T06:09:03.689Z,25.10
2022-09-28T06:11:32.311Z,24.80
2022-09-28T06:13:59.927Z,23.33
2022-09-28T06:16:28.102Z,25.50
2022-09-28T06:18:55.711Z,25.00
2022-09-28T06:21:25.285Z,25.47
2022-09-28T06:23:52.904Z,23.90
2022-09-28T06:26:20.561Z,24.77
2022-09-28T06:28:48.179Z,24.80
2022-09-28T06:31:15.936Z,25.50
2022-09-28T06:33:44.057Z,26.23
2022-09-28T06:36:11.761Z,25.53
2022-09-28T06:38:41.055Z,22.67
2022-09-28T06:41:08.867Z,23.87
2022-09-28T06:43:36.852Z,25.80
2022-09-28T06:46:04.697Z,26.67
2022-09-28T06:48:34.338Z,24.67
2022-09-28T06:51:02.262Z,25.97
2022-09-28T06:53:30.106Z,25.77
2022-09-28T06:55:59.843Z,28.87
2022-09-28T07:01:58.778Z,27.53
2022-09-28T07:04:33.163Z,29.87
2022-09-28T07:07:01.564Z,29.90
2022-09-28T07:09:33.908Z,28.97
2022-09-28T07:12:04.958Z,29.47
2022-09-28T07:14:46.515Z,29.50
2022-09-28T07:24:42.794Z,24.67
2022-09-28T07:27:53.365Z,26.97
2022-09-28T07:30:24.662Z,24.63
2022-09-28T07:33:27.576Z,30.40
2022-09-28T07:35:56.363Z,29.27
2022-09-28T07:38:25.051Z,35.83
2022-09-28T07:41:22.074Z,34.47
2022-09-28T07:43:52.465Z,31.83
2022-09-28T07:46:26.273Z,31.13
2022-09-28T07:49:11.603Z,30.77
2022-09-28T07:52:18.670Z,33.07
2022-09-28T07:55:29.366Z,30.57
2022-09-28T07:58:55.012Z,29.50
2022-09-28T08:02:00.667Z,29.80
2022-09-28T08:04:34.483Z,31.33
2022-09-28T08:07:03.249Z,53.80
2022-09-28T08:09:32.618Z,32.60
2022-09-28T08:12:00.368Z,33.10
2022-09-28T08:14:28.880Z,33.70
2022-09-28T08:16:59.572Z,32.90
2022-09-28T08:19:47.494Z,32.93
2022-09-28T08:22:24.423Z,29.73
2022-09-28T08:25:00.157Z,30.30
2022-09-28T08:27:31.894Z,31.23
2022-09-28T08:29:59.552Z,31.50
2022-09-28T08:32:27.241Z,30.30
2022-09-28T08:34:56.261Z,30.43
2022-09-28T08:37:25.510Z,28.10
2022-09-28T08:39:53.830Z,27.40
2022-09-28T08:42:30.975Z,33.10
2022-09-28T08:45:01.121Z,26.30
2022-09-28T08:47:52.026Z,23.37
2022-09-28T08:50:21.853Z,23.40
2022-09-28T08:52:54.605Z,26.00
2022-09-28T08:55:26.100Z,23.07
2022-09-28T08:57:57.327Z,28.97
2022-09-28T09:00:32.429Z,30.87
2022-09-28T09:03:00.453Z,33.13
2022-09-28T09:05:39.627Z,31.10
2022-09-28T09:08:25.182Z,30.33
2022-09-28T09:10:53.972Z,27.77
2022-09-28T09:13:36.517Z,32.27
2022-09-28T09:16:06.220Z,33.07
2022-09-28T09:18:37.506Z,28.80
2022-09-28T09:21:09.466Z,27.30
2022-09-28T09:23:39.870Z,23.50
2022-09-28T09:26:16.038Z,20.00
2022-09-28T09:28:51.969Z,18.47
2022-09-28T09:31:27.532Z,16.33
2022-09-28T09:34:03.771Z,27.50
2022-09-28T09:36:36.084Z,14.47
2022-09-28T09:39:15.261Z,29.47
2022-09-28T09:41:49.186Z,20.47
2022-09-28T09:44:24.399Z,21.90
2022-09-28T09:46:54.985Z,22.73
2022-09-28T09:49:25.288Z,23.50
2022-09-28T09:51:57.222Z,23.67
2022-09-28T09:54:28.491Z,22.87
2022-09-28T09:56:58.465Z,19.13
2022-09-28T09:59:28.109Z,19.83
2022-09-28T10:01:56.840Z,45.07
2022-09-28T10:04:26.079Z,25.10
2022-09-28T10:06:56.901Z,26.53
2022-09-28T10:09:27.598Z,23.80
2022-09-28T10:11:55.220Z,25.43
2022-09-28T10:14:24.707Z,26.43
2022-09-28T10:16:53.758Z,28.37
2022-09-28T10:19:22.583Z,21.70
2022-09-28T10:21:51.853Z,20.10
2022-09-28T10:24:23.358Z,20.13
2022-09-28T10:26:55.090Z,18.30
2022-09-28T10:29:23.603Z,18.90
2022-09-28T10:31:52.572Z,21.77
2022-09-28T10:34:25.929Z,19.60
2022-09-28T10:36:56.139Z,59.20
2022-09-28T10:39:26.899Z,20.43
2022-09-28T10:41:56.305Z,20.73
2022-09-28T10:44:24.245Z,23.70
2022-09-28T10:46:57.284Z,23.43
2022-09-28T10:49:26.040Z,26.53
2022-09-28T10:51:56.330Z,28.30
2022-09-28T10:54:24.431Z,28.43
2022-09-28T10:56:52.666Z,28.50
2022-09-28T10:59:36.847Z,31.53
2022-09-28T11:02:08.305Z,26.43
2022-09-28T11:04:39.436Z,31.03
2022-09-28T11:07:17.322Z,28.17
2022-09-28T11:09:48.699Z,29.57
2022-09-28T11:12:17.764Z,29.63
2022-09-28T11:14:48.827Z,28.77
2022-09-28T11:17:17.103Z,26.27
2022-09-28T11:19:44.991Z,26.50
2022-09-28T11:22:26.270Z,23.80
2022-09-28T11:24:54.185Z,23.83
2022-09-28T11:27:23.328Z,23.33
2022-09-28T11:29:57.006Z,21.17
2022-09-28T11:32:25.660Z,23.77
2022-09-28T11:34:59.567Z,22.40
2022-09-28T11:37:34.979Z,22.43
2022-09-28T11:40:07.150Z,23.30
2022-09-28T11:42:40.929Z,23.00
2022-09-28T11:45:24.063Z,21.13
2022-09-28T11:47:56.279Z,17.97
2022-09-28T11:50:28.796Z,20.23
2022-09-28T11:52:58.889Z,19.80
2022-09-28T11:55:30.743Z,17.93
2022-09-28T11:58:02.129Z,14.57
2022-09-28T12:00:32.296Z,14.87
2022-09-28T12:03:02.610Z,15.30
2022-09-28T12:05:33.241Z,17.50
2022-09-28T12:08:03.480Z,18.23
2022-09-28T12:10:34.623Z,20.27
2022-09-28T12:13:04.441Z,22.33
2022-09-28T12:15:59.242Z,21.10
2022-09-28T12:18:27.598Z,20.67
2022-09-28T12:21:05.041Z,22.33
2022-09-28T12:23:36.480Z,20.63
2022-09-28T12:26:06.154Z,20.93
2022-09-28T12:28:36.917Z,21.40
2022-09-28T12:31:10.931Z,20.53
2022-09-28T12:33:39.021Z,20.03
2022-09-28T12:36:13.585Z,20.00
2022-09-28T12:39:08.506Z,21.23
2022-09-28T12:41:43.595Z,19.67
2022-09-28T12:44:20.205Z,20.10
2022-09-28T12:46:58.419Z,16.40
2022-09-28T12:52:24.451Z,16.67
2022-09-28T12:55:06.252Z,21.67
2022-09-28T12:57:41.736Z,24.53
2022-09-28T13:00:11.932Z,22.87
2022-09-28T13:02:57.555Z,23.43
2022-09-28T13:05:40.928Z,24.13
2022-09-28T13:08:11.444Z,21.13
2022-09-28T13:10:42.240Z,18.57
2022-09-28T13:13:21.820Z,19.30
2022-09-28T13:15:51.983Z,20.17
2022-09-28T13:18:23.589Z,22.50
2022-09-28T13:20:59.680Z,27.00
2022-09-28T13:23:29.917Z,26.23
2022-09-28T13:25:59.960Z,19.50
2022-09-28T13:28:29.003Z,21.30
2022-09-28T13:33:30.152Z,23.40
2022-09-28T13:35:59.893Z,19.33
2022-09-28T13:38:31.214Z,16.63
2022-09-28T13:41:12.303Z,18.17
2022-09-28T13:43:48.023Z,16.50
2022-09-28T13:46:22.228Z,16.30
2022-09-28T13:48:59.654Z,19.20
2022-09-28T13:51:33.075Z,18.30
2022-09-28T13:54:07.096Z,16.47
2022-09-28T13:56:37.268Z,19.27
2022-09-28T13:59:11.105Z,27.03
2022-09-28T14:01:41.019Z,24.53
2022-09-28T14:04:14.331Z,22.93
2022-09-28T14:06:48.696Z,19.50
2022-09-28T14:09:26.237Z,17.53
2022-09-28T14:11:58.074Z,17.53
2022-09-28T14:14:27.500Z,19.20
2022-09-28T14:17:20.065Z,20.87
2022-09-28T14:19:50.863Z,22.27
2022-09-28T14:22:26.743Z,21.67
2022-09-28T14:25:04.118Z,20.93
2022-09-28T14:27:39.241Z,21.00
2022-09-28T14:30:09.077Z,18.33
2022-09-28T14:32:37.772Z,17.50
2022-09-28T14:35:07.141Z,16.13
2022-09-28T14:37:55.656Z,26.43
2022-09-28T14:40:47.244Z,29.73
2022-09-28T14:43:24.237Z,26.97
2022-09-28T14:45:52.843Z,30.07
2022-09-28T14:48:21.970Z,31.37
2022-09-28T14:50:50.119Z,28.67
2022-09-28T14:53:26.093Z,27.53
2022-09-28T14:55:56.251Z,26.03
2022-09-28T14:58:26.105Z,25.40
2022-09-28T15:01:01.460Z,24.83
2022-09-28T15:03:31.290Z,23.70
2022-09-28T15:05:59.721Z,24.23
2022-09-28T15:08:38.492Z,23.60
2022-09-28T15:11:07.516Z,18.27
2022-09-28T15:13:36.509Z,16.63
2022-09-28T15:16:06.684Z,14.63
2022-09-28T15:18:44.503Z,15.90
2022-09-28T15:21:12.619Z,20.10
2022-09-28T15:23:44.214Z,21.07
2022-09-28T15:26:22.305Z,20.13
2022-09-28T15:28:50.261Z,21.43
2022-09-28T15:31:19.163Z,20.20
2022-09-28T15:34:05.347Z,20.43
2022-09-28T15:36:34.416Z,19.03
2022-09-28T15:39:05.411Z,18.23
2022-09-28T15:41:35.084Z,14.97
2022-09-28T15:44:18.806Z,17.53
2022-09-28T15:46:48.140Z,22.13
2022-09-28T15:49:24.354Z,21.73
2022-09-28T15:51:54.300Z,23.10
2022-09-28T15:54:25.193Z,20.73
2022-09-28T15:56:54.915Z,14.47
2022-09-28T15:59:27.802Z,13.80
2022-09-28T16:02:07.610Z,18.10
2022-09-28T16:04:37.684Z,19.40
2022-09-28T16:07:06.796Z,20.30
2022-09-28T16:09:54.959Z,20.13
2022-09-28T16:12:23.043Z,19.67
2022-09-28T16:14:51.353Z,19.17
2022-09-28T16:17:20.553Z,19.07
2022-09-28T16:19:49.850Z,17.13
2022-09-28T16:22:24.479Z,18.57
2022-09-28T16:24:58.330Z,17.13
2022-09-28T16:27:28.902Z,17.17
2022-09-28T16:30:05.341Z,17.30
2022-09-28T16:32:39.172Z,17.80
2022-09-28T16:35:19.198Z,16.20
2022-09-28T16:37:49.032Z,15.67
2022-09-28T16:40:19.075Z,16.43
2022-09-28T16:42:49.308Z,14.13
2022-09-28T16:45:19.966Z,15.80
2022-09-28T16:47:52.530Z,15.43
2022-09-28T16:50:20.934Z,16.90
2022-09-28T16:53:06.057Z,19.57
2022-09-28T16:55:40.619Z,27.30
2022-09-28T16:58:09.773Z,31.37
2022-09-28T17:00:37.905Z,33.33
2022-09-28T17:03:12.085Z,33.63
2022-09-28T17:05:40.287Z,33.33
2022-09-28T17:08:10.064Z,45.37
2022-09-28T17:11:12.423Z,28.37
2022-09-28T17:13:34.834Z,21.03
2022-09-28T17:16:04.683Z,23.97
2022-09-28T17:18:32.606Z,20.33
2022-09-28T17:21:03.548Z,19.77
2022-09-28T17:23:31.509Z,21.00
2022-09-28T17:26:00.921Z,19.40
2022-09-28T17:28:33.109Z,17.50
2022-09-28T17:31:01.248Z,18.97
2022-09-28T17:33:30.034Z,18.23
2022-09-28T17:36:00.400Z,16.10
2022-09-28T17:38:28.959Z,15.60
2022-09-28T17:40:57.183Z,15.60
2022-09-28T17:43:26.483Z,14.07
2022-09-28T17:45:55.002Z,14.73
2022-09-28T17:48:24.426Z,16.23
2022-09-28T17:50:52.304Z,16.80
2022-09-28T17:53:20.107Z,18.53
2022-09-28T17:55:48.029Z,18.77
2022-09-28T17:58:17.737Z,18.90
2022-09-28T18:00:47.528Z,21.97
2022-09-28T18:03:16.741Z,20.30
2022-09-28T18:05:45.159Z,22.90
2022-09-28T18:08:14.780Z,22.70
2022-09-28T18:10:42.660Z,24.43
2022-09-28T18:13:10.743Z,22.57
2022-09-28T18:15:38.798Z,25.23
2022-09-28T18:21:38.583Z,26.37
2022-09-28T18:35:01.446Z,28.53
2022-09-28T18:38:17.503Z,29.30
2022-09-28T18:51:38.531Z,20.43
2022-09-28T19:08:17.142Z,13.20
2022-09-28T19:15:36.584Z,13.50
2022-09-28T19:18:32.741Z,13.03
2022-09-28T19:28:37.983Z,13.63
2022-09-28T19:45:23.176Z,13.70
2022-09-28T19:52:13.758Z,13.53
2022-09-28T19:58:41.718Z,13.50
2022-09-28T20:02:18.691Z,16.07
2022-09-28T20:19:20.072Z,13.63
2022-09-28T20:22:37.959Z,15.67
2022-09-28T20:26:03.206Z,21.50
2022-09-28T20:45:38.432Z,12.63
2022-09-28T20:48:06.960Z,13.67
2022-09-28T20:50:35.226Z,13.43
2022-09-28T20:53:03.266Z,14.03
2022-09-28T20:55:31.103Z,13.53
2022-09-28T20:58:03.415Z,13.87
2022-09-28T21:00:31.877Z,12.17
2022-09-28T21:03:01.812Z,12.97
2022-09-28T21:05:30.714Z,14.30
2022-09-28T21:07:59.425Z,13.03
2022-09-28T21:10:30.523Z,12.83
2022-09-28T21:12:58.459Z,12.57
2022-09-28T21:15:26.606Z,12.63
2022-09-28T21:17:54.634Z,17.30
2022-09-28T21:20:23.925Z,29.30
2022-09-28T21:22:52.156Z,24.33
2022-09-28T21:25:20.046Z,14.70
2022-09-28T21:27:48.403Z,35.77
2022-09-28T21:30:20.139Z,15.00
2022-09-28T21:32:50.292Z,18.10
2022-09-28T21:35:18.341Z,15.93
2022-09-28T21:37:47.611Z,27.27
2022-09-28T21:40:15.615Z,17.07
2022-09-28T21:42:43.474Z,17.30
2022-09-28T21:45:11.496Z,17.37
2022-09-28T21:47:39.886Z,15.63
2022-09-28T21:50:08.371Z,15.13
2022-09-28T21:52:36.195Z,15.80
2022-09-28T21:55:05.710Z,15.33
2022-09-28T21:57:33.441Z,13.80
2022-09-28T22:00:01.237Z,14.23
2022-09-28T22:02:29.924Z,14.63
2022-09-28T22:04:58.331Z,13.93
2022-09-28T22:07:26.165Z,14.23
2022-09-28T22:09:54.434Z,14.43
2022-09-28T22:12:23.583Z,14.87
2022-09-28T22:14:51.436Z,15.00
2022-09-28T22:17:19.248Z,15.77
2022-09-28T22:19:47.018Z,15.83
2022-09-28T22:22:15.421Z,16.57
2022-09-28T22:24:43.760Z,16.93
2022-09-28T22:27:11.854Z,17.00
2022-09-28T22:29:41.340Z,16.17
2022-09-28T22:32:09.635Z,16.17
2022-09-28T22:34:37.424Z,14.33
2022-09-28T22:37:05.446Z,14.60
2022-09-28T22:39:37.509Z,14.37
2022-09-28T22:42:05.845Z,14.77
2022-09-28T22:44:35.591Z,13.37
2022-09-28T22:47:04.750Z,13.97
2022-09-28T22:49:32.800Z,12.63
2022-09-28T22:52:00.671Z,12.90
2022-09-28T22:54:28.899Z,12.43
2022-09-28T22:56:56.848Z,15.10
2022-09-28T22:59:24.684Z,14.87
2022-09-28T23:01:52.526Z,14.07
2022-09-28T23:04:21.755Z,14.80
2022-09-28T23:06:49.590Z,14.63
2022-09-28T23:09:17.479Z,14.13
2022-09-28T23:11:45.390Z,28.73
2022-09-28T23:14:13.643Z,26.27
2022-09-28T23:16:41.667Z,19.07
2022-09-28T23:19:09.458Z,36.97
2022-09-28T23:21:39.708Z,14.17
2022-09-28T23:24:08.185Z,14.67
2022-09-28T23:26:37.141Z,13.50
2022-09-28T23:29:04.951Z,14.97
2022-09-28T23:31:33.880Z,14.80
2022-09-28T23:34:02.490Z,20.57
2022-09-28T23:36:30.356Z,18.63
2022-09-28T23:38:59.746Z,18.70
2022-09-28T23:41:27.559Z,18.87
2022-09-28T23:43:55.309Z,19.17
2022-09-28T23:46:23.617Z,19.57
2022-09-28T23:48:51.602Z,18.43
2022-09-28T23:51:19.487Z,18.40
2022-09-28T23:53:47.357Z,23.90
2022-09-28T23:56:17.204Z,18.90
2022-09-28T23:58:45.176Z,18.90
